Time;durP1;ratioP1;P1;durP2;ratioP2;P2;SDS_P1;SDS_P2;PMS_P1;PMS_P2;Temp;Humidity;BMP_temperature;BMP_pressure;BME280_temperature;BME280_humidity;BME280_pressure;Samples;Min_cycle;Max_cycle;Signal;HPM_P1;HPM_P2
2022/02/28 00:00:58;;;;;;;2.80;2.10;;;;;;;;;;5013732;28;20042;-67
2022/02/28 00:04:02;;;;;;;3.53;1.85;;;;;;;;;;5013283;28;20038;-67
2022/02/28 00:07:06;;;;;;;3.53;1.50;;;;;;;;;;5013597;28;20494;-67
2022/02/28 00:10:11;;;;;;;2.75;1.80;;;;;;;;;;5013639;28;20038;-67
2022/02/28 00:13:15;;;;;;;3.75;1.50;;;;;;;;;;5012953;28;20042;-67
2022/02/28 00:16:19;;;;;;;2.47;1.55;;;;;;;;;;5013486;28;20605;-67
2022/02/28 00:19:24;;;;;;;1.85;1.40;;;;;;;;;;5013492;28;20046;-67
2022/02/28 00:22:28;;;;;;;2.33;1.70;;;;;;;;;;5013308;28;20034;-67
2022/02/28 00:25:32;;;;;;;2.45;1.67;;;;;;;;;;5012893;28;20045;-67
2022/02/28 00:28:37;;;;;;;2.35;1.80;;;;;;;;;;5013095;28;20038;-67
2022/02/28 00:31:41;;;;;;;4.22;2.00;;;;;;;;;;5012929;28;20381;-67
2022/02/28 00:34:45;;;;;;;3.70;2.20;;;;;;;;;;5012681;28;20497;-67
2022/02/28 00:37:49;;;;;;;3.70;1.83;;;;;;;;;;5000819;28;20042;-68
2022/02/28 00:40:54;;;;;;;2.97;1.73;;;;;;;;;;5013031;28;20034;-68
2022/02/28 00:43:58;;;;;;;3.38;1.77;;;;;;;;;;5012496;28;20042;-68
2022/02/28 00:47:03;;;;;;;4.28;2.00;;;;;;;;;;5012804;28;20045;-68
2022/02/28 00:50:09;;;;;;;2.30;1.65;;;;;;;;;;5000436;28;20034;-68
2022/02/28 00:53:13;;;;;;;4.38;1.90;;;;;;;;;;4989194;28;20037;-67
2022/02/28 00:56:18;;;;;;;2.35;2.00;;;;;;;;;;5000526;28;20038;-68
2022/02/28 00:59:22;;;;;;;3.03;2.10;;;;;;;;;;5012373;28;20383;-67
2022/02/28 01:02:27;;;;;;;4.47;2.00;;;;;;;;;;5012541;28;20038;-67
2022/02/28 01:05:31;;;;;;;4.38;2.40;;;;;;;;;;5000157;28;20054;-67
2022/02/28 01:08:35;;;;;;;4.88;2.40;;;;;;;;;;5012263;28;20038;-67
2022/02/28 01:11:40;;;;;;;3.53;2.10;;;;;;;;;;4999963;28;20042;-67
2022/02/28 01:14:44;;;;;;;4.78;2.05;;;;;;;;;;5012187;28;20034;-67
2022/02/28 01:17:50;;;;;;;5.78;1.80;;;;;;;;;;5012112;28;20489;-67
2022/02/28 01:20:54;;;;;;;4.15;2.03;;;;;;;;;;5012004;28;20037;-67
2022/02/28 01:23:59;;;;;;;5.38;2.13;;;;;;;;;;5011979;28;20038;-67
2022/02/28 01:27:03;;;;;;;4.15;2.05;;;;;;;;;;4999989;28;20054;-67
2022/02/28 01:30:08;;;;;;;4.65;2.10;;;;;;;;;;5012000;28;20037;-67
2022/02/28 01:33:12;;;;;;;2.95;2.00;;;;;;;;;;5011822;28;20046;-67
2022/02/28 01:36:17;;;;;;;7.95;2.65;;;;;;;;;;5011822;28;20042;-67
2022/02/28 01:39:21;;;;;;;7.47;2.33;;;;;;;;;;4999629;28;20038;-67
2022/02/28 01:42:26;;;;;;;7.63;2.50;;;;;;;;;;5012021;28;20030;-67
2022/02/28 01:45:30;;;;;;;3.58;2.17;;;;;;;;;;5011619;28;20050;-67
2022/02/28 01:48:35;;;;;;;4.22;2.40;;;;;;;;;;5011427;28;20477;-67
2022/02/28 01:51:39;;;;;;;6.18;2.47;;;;;;;;;;4999782;28;20383;-67
2022/02/28 01:54:47;;;;;;;3.92;2.72;;;;;;;;;;4999617;28;20046;-67
2022/02/28 01:57:52;;;;;;;4.85;2.25;;;;;;;;;;5011763;28;20037;-67
2022/02/28 02:00:56;;;;;;;5.13;2.50;;;;;;;;;;4999573;28;20042;-67
2022/02/28 02:04:00;;;;;;;3.08;2.20;;;;;;;;;;4999306;28;20347;-67
2022/02/28 02:07:05;;;;;;;3.17;2.33;;;;;;;;;;4999414;28;20045;-67
2022/02/28 02:10:10;;;;;;;4.45;1.95;;;;;;;;;;5011317;28;20046;-67
2022/02/28 02:13:15;;;;;;;3.92;1.90;;;;;;;;;;4998916;28;20482;-67
2022/02/28 02:16:19;;;;;;;4.32;2.28;;;;;;;;;;4999113;28;20042;-68
2022/02/28 02:19:23;;;;;;;4.65;2.30;;;;;;;;;;5011391;28;20038;-67
2022/02/28 02:22:27;;;;;;;3.28;2.15;;;;;;;;;;4999094;28;20042;-67
2022/02/28 02:25:33;;;;;;;4.47;2.85;;;;;;;;;;4998841;28;20386;-68
2022/02/28 02:28:38;;;;;;;5.63;2.70;;;;;;;;;;5011396;28;20037;-68
2022/02/28 02:31:43;;;;;;;3.63;2.35;;;;;;;;;;4988116;28;20050;-67
2022/02/28 02:34:47;;;;;;;3.88;2.22;;;;;;;;;;5000448;28;20038;-67
2022/02/28 02:37:52;;;;;;;5.70;2.13;;;;;;;;;;5015114;28;20034;-68
2022/02/28 02:40:56;;;;;;;4.32;2.30;;;;;;;;;;5015273;28;20038;-67
2022/02/28 02:44:00;;;;;;;2.80;2.13;;;;;;;;;;5002997;28;20034;-67
2022/02/28 02:47:07;;;;;;;4.10;2.47;;;;;;;;;;5002821;28;20046;-67
2022/02/28 02:50:35;;;;;;;5.97;3.22;;;;;;;;;;5002736;28;20030;-67
2022/02/28 02:53:42;;;;;;;3.33;2.20;;;;;;;;;;5013982;28;20037;-66
2022/02/28 02:56:47;;;;;;;5.45;2.15;;;;;;;;;;5002581;28;20045;-66
2022/02/28 02:59:51;;;;;;;3.60;2.40;;;;;;;;;;5002569;28;20041;-66
2022/02/28 03:02:56;;;;;;;7.13;2.67;;;;;;;;;;5002614;28;20037;-67
2022/02/28 03:06:01;;;;;;;3.45;2.17;;;;;;;;;;5002830;28;20049;-67
2022/02/28 03:09:16;;;;;;;4.72;2.42;;;;;;;;;;5002530;28;20033;-67
2022/02/28 03:12:21;;;;;;;4.55;2.20;;;;;;;;;;5002432;28;20042;-67
2022/02/28 03:15:28;;;;;;;5.60;2.28;;;;;;;;;;5002651;28;20219;-67
2022/02/28 03:18:34;;;;;;;3.75;2.47;;;;;;;;;;5002339;28;20041;-67
2022/02/28 03:21:38;;;;;;;3.25;2.67;;;;;;;;;;5002249;28;20374;-67
2022/02/28 03:24:43;;;;;;;4.63;2.53;;;;;;;;;;5001918;28;20046;-67
2022/02/28 03:27:47;;;;;;;7.05;2.40;;;;;;;;;;5002318;28;20046;-67
2022/02/28 03:30:51;;;;;;;3.92;2.55;;;;;;;;;;5002184;28;20038;-67
2022/02/28 03:33:56;;;;;;;5.15;2.13;;;;;;;;;;5001975;28;20038;-67
2022/02/28 03:37:01;;;;;;;6.47;2.20;;;;;;;;;;5002060;28;20033;-67
2022/02/28 03:40:06;;;;;;;4.20;2.30;;;;;;;;;;5001950;28;20038;-67
2022/02/28 03:43:11;;;;;;;6.70;2.50;;;;;;;;;;4990641;28;20046;-67
2022/02/28 03:46:53;;;;;;;5.32;2.50;;;;;;;;;;5013844;28;20567;-67
2022/02/28 03:50:04;;;;;;;6.45;2.10;;;;;;;;;;5014160;28;20038;-67
2022/02/28 03:53:09;;;;;;;5.18;2.10;;;;;;;;;;5001945;28;20042;-67
2022/02/28 03:56:15;;;;;;;3.90;2.28;;;;;;;;;;5001492;28;20042;-67
2022/02/28 03:59:19;;;;;;;5.93;2.40;;;;;;;;;;5001576;28;20042;-67
2022/02/28 04:02:24;;;;;;;6.68;2.35;;;;;;;;;;5001436;28;20041;-66
2022/02/28 04:05:28;;;;;;;4.47;2.05;;;;;;;;;;5001255;28;20053;-68
2022/02/28 04:08:34;;;;;;;7.13;2.47;;;;;;;;;;5001615;28;20034;-67
2022/02/28 04:11:38;;;;;;;6.50;2.97;;;;;;;;;;5001521;28;20390;-67
2022/02/28 04:14:42;;;;;;;7.75;2.20;;;;;;;;;;5000820;28;20037;-67
2022/02/28 04:17:47;;;;;;;4.05;2.10;;;;;;;;;;5001540;28;20034;-67
2022/02/28 04:21:06;;;;;;;3.20;2.08;;;;;;;;;;4991828;28;20030;-67
2022/02/28 04:24:10;;;;;;;5.07;2.15;;;;;;;;;;5001275;28;20034;-67
2022/02/28 04:27:14;;;;;;;6.50;2.58;;;;;;;;;;5000935;28;20408;-67
2022/02/28 04:30:20;;;;;;;4.25;2.58;;;;;;;;;;5001336;28;20038;-67
2022/02/28 04:33:24;;;;;;;3.08;1.85;;;;;;;;;;5000764;28;20042;-67
2022/02/28 04:36:28;;;;;;;2.83;1.73;;;;;;;;;;5001125;28;20367;-67
2022/02/28 04:39:33;;;;;;;3.05;1.88;;;;;;;;;;5001043;28;20497;-66
2022/02/28 04:42:40;;;;;;;4.65;2.42;;;;;;;;;;5000944;28;20050;-66
2022/02/28 04:45:44;;;;;;;3.55;2.00;;;;;;;;;;5000644;28;20493;-66
2022/02/28 04:48:49;;;;;;;3.92;1.70;;;;;;;;;;5000834;28;20038;-66
2022/02/28 04:52:04;;;;;;;3.35;1.77;;;;;;;;;;5000552;28;20042;-66
2022/02/28 04:55:09;;;;;;;5.25;2.72;;;;;;;;;;5000727;28;20034;-66
2022/02/28 04:58:14;;;;;;;5.75;2.00;;;;;;;;;;5000159;28;20041;-68
2022/02/28 05:01:42;;;;;;;3.70;1.80;;;;;;;;;;5000455;28;20041;-67
2022/02/28 05:05:03;;;;;;;4.93;2.28;;;;;;;;;;4999924;28;20046;-67
2022/02/28 05:08:07;;;;;;;4.55;1.95;;;;;;;;;;5000233;28;20045;-67
2022/02/28 05:11:14;;;;;;;3.22;1.85;;;;;;;;;;5000171;28;20038;-67
2022/02/28 05:14:19;;;;;;;8.05;2.20;;;;;;;;;;5000387;28;20478;-67
2022/02/28 05:17:23;;;;;;;2.20;1.90;;;;;;;;;;5000193;28;20366;-67
2022/02/28 05:20:28;;;;;;;2.92;1.70;;;;;;;;;;5000349;28;20034;-67
2022/02/28 05:23:33;;;;;;;3.15;1.65;;;;;;;;;;4999837;28;20033;-66
2022/02/28 05:26:37;;;;;;;4.40;1.98;;;;;;;;;;4999759;28;20049;-67
2022/02/28 05:29:41;;;;;;;4.00;1.95;;;;;;;;;;5000053;28;20038;-67
2022/02/28 05:32:47;;;;;;;3.85;2.10;;;;;;;;;;5000049;28;20061;-67
2022/02/28 05:36:07;;;;;;;5.47;2.30;;;;;;;;;;4999918;28;20045;-67
2022/02/28 05:39:15;;;;;;;2.90;1.92;;;;;;;;;;4999461;28;20490;-67
2022/02/28 05:42:19;;;;;;;2.80;2.38;;;;;;;;;;4999804;28;20037;-68
2022/02/28 05:45:25;;;;;;;3.45;2.35;;;;;;;;;;4999373;28;20042;-67
2022/02/28 05:48:42;;;;;;;3.95;2.95;;;;;;;;;;4999396;28;20042;-67
2022/02/28 05:51:47;;;;;;;3.70;2.58;;;;;;;;;;4999328;28;20030;-67
2022/02/28 05:54:52;;;;;;;6.97;2.17;;;;;;;;;;5011352;28;20041;-67
2022/02/28 05:57:56;;;;;;;5.07;2.13;;;;;;;;;;5011812;28;20473;-67
2022/02/28 06:01:00;;;;;;;3.00;1.70;;;;;;;;;;5011490;28;20082;-66
2022/02/28 06:04:05;;;;;;;2.50;2.00;;;;;;;;;;5011001;28;20034;-67
2022/02/28 06:07:09;;;;;;;3.90;2.15;;;;;;;;;;5011307;28;20041;-67
2022/02/28 06:10:14;;;;;;;4.25;1.63;;;;;;;;;;5010746;28;20041;-67
2022/02/28 06:13:18;;;;;;;2.47;1.88;;;;;;;;;;5011293;28;20034;-66
2022/02/28 06:16:22;;;;;;;4.35;2.22;;;;;;;;;;5011350;28;20230;-67
2022/02/28 06:19:27;;;;;;;6.28;2.00;;;;;;;;;;4999407;28;20034;-66
2022/02/28 06:22:31;;;;;;;3.65;1.75;;;;;;;;;;5011278;28;20034;-66
2022/02/28 06:25:37;;;;;;;6.05;1.85;;;;;;;;;;4999047;28;20041;-66
2022/02/28 06:28:42;;;;;;;3.83;1.98;;;;;;;;;;5011372;28;20042;-66
2022/02/28 06:31:46;;;;;;;3.88;2.13;;;;;;;;;;5011156;28;20033;-67
2022/02/28 06:34:51;;;;;;;7.05;2.28;;;;;;;;;;5011291;28;20041;-67
2022/02/28 06:37:55;;;;;;;5.72;2.13;;;;;;;;;;5011385;28;20045;-67
2022/02/28 06:41:00;;;;;;;3.97;2.30;;;;;;;;;;5011345;28;20038;-68
2022/02/28 06:44:05;;;;;;;3.65;2.17;;;;;;;;;;5011069;28;20033;-68
2022/02/28 06:47:10;;;;;;;5.85;2.03;;;;;;;;;;5010932;28;20042;-67
2022/02/28 06:50:14;;;;;;;5.15;2.30;;;;;;;;;;5011150;28;20045;-68
2022/02/28 06:53:23;;;;;;;2.78;2.00;;;;;;;;;;5010892;28;20034;-68
2022/02/28 06:56:27;;;;;;;4.53;2.47;;;;;;;;;;5010851;28;20100;-67
2022/02/28 06:59:31;;;;;;;4.63;2.00;;;;;;;;;;5010971;28;20041;-67
2022/02/28 07:02:36;;;;;;;3.05;1.73;;;;;;;;;;4998350;28;20037;-67
2022/02/28 07:05:49;;;;;;;8.45;2.17;;;;;;;;;;5009971;28;20042;-66
2022/02/28 07:08:53;;;;;;;4.13;2.42;;;;;;;;;;5010827;28;20030;-65
2022/02/28 07:11:58;;;;;;;4.57;2.95;;;;;;;;;;5010756;28;20038;-65
2022/02/28 07:15:03;;;;;;;4.85;2.55;;;;;;;;;;5010776;28;20045;-66
2022/02/28 07:18:08;;;;;;;7.10;2.20;;;;;;;;;;5010657;28;20489;-65
2022/02/28 07:21:12;;;;;;;7.63;2.80;;;;;;;;;;5012652;28;20046;-66
2022/02/28 07:24:16;;;;;;;6.15;2.70;;;;;;;;;;5014367;28;20038;-66
2022/02/28 07:27:21;;;;;;;5.70;3.08;;;;;;;;;;5013860;28;20050;-65
2022/02/28 07:30:25;;;;;;;5.55;2.90;;;;;;;;;;5014600;28;20038;-66
2022/02/28 07:33:30;;;;;;;5.30;2.47;;;;;;;;;;5014271;28;20042;-66
2022/02/28 07:36:34;;;;;;;7.55;2.70;;;;;;;;;;4990862;28;20034;-67
2022/02/28 07:39:38;;;;;;;3.90;2.55;;;;;;;;;;5014055;28;20049;-67
2022/02/28 07:42:43;;;;;;;5.25;2.80;;;;;;;;;;5013845;28;20046;-71
2022/02/28 07:45:47;;;;;;;7.00;2.90;;;;;;;;;;5013826;28;20114;-68
2022/02/28 07:48:52;;;;;;;7.07;2.67;;;;;;;;;;5014120;28;20042;-67
2022/02/28 07:51:56;;;;;;;7.88;3.00;;;;;;;;;;5013877;28;20382;-68
2022/02/28 07:55:01;;;;;;;5.90;2.60;;;;;;;;;;5013906;28;20034;-67
2022/02/28 07:58:05;;;;;;;9.25;3.08;;;;;;;;;;5001580;28;20046;-69
2022/02/28 08:01:09;;;;;;;4.53;3.20;;;;;;;;;;5001572;28;20049;-66
2022/02/28 08:04:14;;;;;;;5.47;2.65;;;;;;;;;;5013439;28;20045;-66
2022/02/28 08:07:18;;;;;;;8.85;3.15;;;;;;;;;;5013527;28;20046;-68
2022/02/28 08:10:23;;;;;;;8.73;2.90;;;;;;;;;;5013399;28;20042;-69
2022/02/28 08:13:27;;;;;;;4.32;2.75;;;;;;;;;;5013131;28;20093;-69
2022/02/28 08:16:31;;;;;;;5.93;3.15;;;;;;;;;;5013338;28;20367;-68
2022/02/28 08:19:35;;;;;;;5.43;2.65;;;;;;;;;;5013012;28;20042;-68
2022/02/28 08:22:40;;;;;;;7.13;3.30;;;;;;;;;;5013073;28;20042;-68
2022/02/28 08:25:45;;;;;;;5.05;2.83;;;;;;;;;;5013185;28;20086;-68
2022/02/28 08:28:50;;;;;;;10.95;4.22;;;;;;;;;;5013292;28;20042;-67
2022/02/28 08:31:54;;;;;;;6.43;3.10;;;;;;;;;;5012380;28;20045;-67
2022/02/28 08:34:59;;;;;;;7.97;3.15;;;;;;;;;;5012816;28;20038;-67
2022/02/28 08:38:04;;;;;;;6.25;2.70;;;;;;;;;;5012845;28;20042;-66
2022/02/28 08:41:08;;;;;;;7.38;3.47;;;;;;;;;;5012824;28;20462;-66
2022/02/28 08:44:12;;;;;;;6.05;3.38;;;;;;;;;;5012742;28;20050;-67
2022/02/28 08:47:18;;;;;;;6.47;3.53;;;;;;;;;;5012598;28;20042;-66
2022/02/28 08:50:23;;;;;;;8.75;3.45;;;;;;;;;;5000586;28;20042;-67
2022/02/28 08:53:27;;;;;;;6.35;3.40;;;;;;;;;;5012829;28;20049;-68
2022/02/28 08:56:32;;;;;;;6.05;3.28;;;;;;;;;;5012842;28;20038;-67
2022/02/28 08:59:36;;;;;;;4.40;2.95;;;;;;;;;;5012771;28;20034;-68
2022/02/28 09:02:41;;;;;;;6.22;3.10;;;;;;;;;;5012400;28;20033;-70
2022/02/28 09:05:45;;;;;;;8.80;3.47;;;;;;;;;;5012057;28;20038;-69
2022/02/28 09:08:50;;;;;;;5.60;3.67;;;;;;;;;;5012386;28;20038;-68
2022/02/28 09:11:54;;;;;;;8.55;3.50;;;;;;;;;;5010407;28;20046;-68
2022/02/28 09:14:59;;;;;;;6.20;3.45;;;;;;;;;;5012022;28;20038;-70
2022/02/28 09:18:07;;;;;;;5.57;3.15;;;;;;;;;;5012083;28;20042;-69
2022/02/28 09:21:11;;;;;;;7.22;2.90;;;;;;;;;;5012048;28;20038;-68
2022/02/28 09:24:16;;;;;;;4.97;3.13;;;;;;;;;;5011968;28;20474;-70
2022/02/28 09:27:21;;;;;;;11.05;3.40;;;;;;;;;;4988099;28;20050;-69
2022/02/28 09:30:26;;;;;;;6.72;2.90;;;;;;;;;;5011343;28;20053;-69
2022/02/28 09:33:33;;;;;;;7.90;3.58;;;;;;;;;;4999508;28;20038;-69
2022/02/28 09:36:38;;;;;;;4.40;3.13;;;;;;;;;;5011672;28;20034;-68
2022/02/28 09:39:43;;;;;;;6.03;3.28;;;;;;;;;;4999747;28;20379;-69
2022/02/28 09:43:06;;;;;;;6.93;3.38;;;;;;;;;;5011262;28;20038;-69
2022/02/28 09:46:29;;;;;;;7.63;3.08;;;;;;;;;;4999453;28;20042;-69
2022/02/28 09:50:08;;;;;;;11.10;3.42;;;;;;;;;;4971844;28;20134;-68
2022/02/28 09:53:33;;;;;;;13.45;3.88;;;;;;;;;;5001373;28;20404;-70
2022/02/28 09:56:39;;;;;;;5.80;3.13;;;;;;;;;;5011682;28;20397;-69
2022/02/28 10:00:23;;;;;;;5.72;2.80;;;;;;;;;;5011750;28;20038;-69
2022/02/28 10:03:30;;;;;;;5.38;3.30;;;;;;;;;;4999289;28;20034;-69
2022/02/28 10:06:35;;;;;;;8.38;2.95;;;;;;;;;;4999377;28;20045;-69
2022/02/28 10:09:39;;;;;;;6.03;3.38;;;;;;;;;;5011391;28;20046;-68
2022/02/28 10:12:44;;;;;;;5.53;3.17;;;;;;;;;;5011100;28;20034;-68
2022/02/28 10:15:49;;;;;;;6.60;3.13;;;;;;;;;;5011383;28;20033;-69
2022/02/28 10:18:53;;;;;;;6.07;3.38;;;;;;;;;;5011468;28;20050;-68
2022/02/28 10:22:04;;;;;;;7.72;3.58;;;;;;;;;;5011510;28;20038;-71
2022/02/28 10:25:09;;;;;;;5.25;3.50;;;;;;;;;;5011087;28;20042;-69
2022/02/28 10:28:37;;;;;;;6.88;3.85;;;;;;;;;;4999123;28;20379;-70
2022/02/28 10:32:01;;;;;;;6.35;3.58;;;;;;;;;;5010942;28;20029;-69
2022/02/28 10:39:10;;;;;;;7.72;3.38;;;;;;;;;;4998944;28;20371;-68
2022/02/28 10:42:15;;;;;;;7.20;3.55;;;;;;;;;;5011156;28;20045;-68
2022/02/28 10:45:24;;;;;;;5.85;3.47;;;;;;;;;;4999277;28;20038;-68
2022/02/28 10:48:29;;;;;;;9.02;3.28;;;;;;;;;;5010976;28;20046;-68
2022/02/28 10:51:43;;;;;;;6.47;3.28;;;;;;;;;;4999042;28;20049;-67
2022/02/28 10:54:49;;;;;;;8.07;3.63;;;;;;;;;;5010857;28;20049;-66
2022/02/28 10:58:07;;;;;;;7.07;3.85;;;;;;;;;;5014929;28;20355;-67
2022/02/28 11:01:11;;;;;;;7.43;4.70;;;;;;;;;;5014893;28;20042;-67
2022/02/28 11:04:15;;;;;;;10.43;3.75;;;;;;;;;;5002643;28;20042;-67
2022/02/28 11:07:24;;;;;;;6.20;3.97;;;;;;;;;;5014539;28;20153;-67
2022/02/28 11:10:36;;;;;;;8.05;5.15;;;;;;;;;;5002238;28;20041;-67
2022/02/28 11:13:44;;;;;;;14.07;4.10;;;;;;;;;;5014386;28;20042;-67
2022/02/28 11:16:48;;;;;;;10.50;4.05;;;;;;;;;;5014420;28;20038;-67
2022/02/28 11:19:53;;;;;;;6.80;3.78;;;;;;;;;;5014629;28;20045;-67
2022/02/28 11:22:58;;;;;;;7.22;3.20;;;;;;;;;;5002053;28;20033;-67
2022/02/28 11:26:03;;;;;;;17.13;7.65;;;;;;;;;;4991079;28;20041;-67
2022/02/28 11:29:07;;;;;;;6.43;4.22;;;;;;;;;;5002097;28;20407;-67
2022/02/28 11:32:11;;;;;;;8.63;3.60;;;;;;;;;;5014159;28;20042;-67
2022/02/28 11:35:34;;;;;;;10.30;4.30;;;;;;;;;;5014233;28;20049;-67
2022/02/28 11:38:39;;;;;;;14.88;6.35;;;;;;;;;;5014289;28;20046;-72
2022/02/28 11:41:44;;;;;;;5.78;3.33;;;;;;;;;;5014293;28;20049;-72
2022/02/28 11:44:53;;;;;;;6.82;3.22;;;;;;;;;;5014154;28;20485;-71
2022/02/28 11:48:17;;;;;;;8.13;4.25;;;;;;;;;;5001871;28;20050;-71
2022/02/28 11:51:31;;;;;;;5.70;3.50;;;;;;;;;;5002114;28;20045;-70
2022/02/28 11:54:42;;;;;;;6.28;3.85;;;;;;;;;;5002050;28;20046;-71
2022/02/28 11:57:49;;;;;;;6.25;3.25;;;;;;;;;;5013817;28;20042;-71
2022/02/28 12:01:11;;;;;;;7.25;2.95;;;;;;;;;;5001825;28;20045;-65
2022/02/28 12:04:15;;;;;;;7.15;3.40;;;;;;;;;;5001318;28;20053;-66
2022/02/28 12:07:22;;;;;;;5.50;2.95;;;;;;;;;;5012025;28;20046;-66
2022/02/28 12:10:28;;;;;;;6.82;3.38;;;;;;;;;;5013008;28;20038;-66
2022/02/28 12:13:36;;;;;;;6.93;3.53;;;;;;;;;;5013405;28;20141;-66
2022/02/28 12:20:17;;;;;;;10.25;3.88;;;;;;;;;;5013576;28;20144;-68
2022/02/28 12:23:25;;;;;;;8.68;3.90;;;;;;;;;;5001310;28;20041;-68
2022/02/28 12:26:29;;;;;;;8.63;3.70;;;;;;;;;;5013178;28;20454;-68
2022/02/28 12:29:33;;;;;;;6.35;4.32;;;;;;;;;;5013417;28;20045;-67
2022/02/28 12:32:51;;;;;;;7.20;4.25;;;;;;;;;;5013041;28;20498;-68
2022/02/28 12:35:59;;;;;;;6.85;4.38;;;;;;;;;;5013133;28;20370;-67
2022/02/28 12:39:08;;;;;;;6.47;3.35;;;;;;;;;;5012797;28;20517;-67
2022/02/28 12:42:13;;;;;;;5.82;3.33;;;;;;;;;;5012930;28;20041;-67
2022/02/28 12:45:20;;;;;;;7.80;4.13;;;;;;;;;;5012907;28;20037;-67
2022/02/28 12:48:25;;;;;;;8.65;3.42;;;;;;;;;;5012950;28;20046;-67
2022/02/28 12:51:32;;;;;;;6.20;3.85;;;;;;;;;;5012818;28;20038;-67
2022/02/28 12:54:36;;;;;;;8.57;3.80;;;;;;;;;;5012509;28;20037;-66
2022/02/28 12:57:41;;;;;;;6.95;3.60;;;;;;;;;;5012829;28;20046;-66
2022/02/28 13:00:48;;;;;;;6.00;4.00;;;;;;;;;;5000475;28;20042;-67
2022/02/28 13:03:57;;;;;;;15.68;5.45;;;;;;;;;;5012468;28;20060;-67
2022/02/28 13:07:10;;;;;;;12.25;4.80;;;;;;;;;;5012345;28;20053;-67
2022/02/28 13:10:14;;;;;;;8.63;4.03;;;;;;;;;;5012695;28;20061;-67
2022/02/28 13:13:24;;;;;;;9.65;5.18;;;;;;;;;;5012271;28;20038;-66
2022/02/28 13:16:29;;;;;;;7.47;4.40;;;;;;;;;;5010666;28;20367;-67
2022/02/28 13:19:35;;;;;;;9.65;3.75;;;;;;;;;;5010734;28;20037;-67
2022/02/28 13:22:39;;;;;;;11.25;3.88;;;;;;;;;;5009785;28;20037;-67
2022/02/28 13:25:48;;;;;;;7.10;3.92;;;;;;;;;;5010797;28;20045;-66
2022/02/28 13:28:52;;;;;;;12.32;5.07;;;;;;;;;;5012135;28;20490;-66
2022/02/28 13:31:58;;;;;;;8.90;4.00;;;;;;;;;;5011578;28;20030;-66
2022/02/28 13:35:02;;;;;;;9.10;3.83;;;;;;;;;;5012050;28;20045;-67
2022/02/28 13:38:07;;;;;;;6.97;4.03;;;;;;;;;;5011890;28;20501;-67
2022/02/28 13:41:11;;;;;;;5.05;3.20;;;;;;;;;;5011572;28;20041;-66
2022/02/28 13:44:16;;;;;;;10.13;4.60;;;;;;;;;;5011617;28;20042;-67
2022/02/28 13:47:23;;;;;;;8.32;5.25;;;;;;;;;;5011563;28;20058;-67
2022/02/28 13:50:31;;;;;;;6.80;4.50;;;;;;;;;;5011813;28;20033;-67
2022/02/28 13:53:47;;;;;;;8.23;5.45;;;;;;;;;;5011605;28;20477;-67
2022/02/28 13:56:51;;;;;;;19.25;10.90;;;;;;;;;;5011663;28;20046;-67
2022/02/28 14:00:08;;;;;;;10.30;7.40;;;;;;;;;;5011805;28;20500;-67
2022/02/28 14:03:17;;;;;;;8.50;4.15;;;;;;;;;;5011918;28;20053;-67
2022/02/28 14:06:22;;;;;;;9.27;4.47;;;;;;;;;;5011741;28;20391;-67
2022/02/28 14:09:33;;;;;;;11.05;5.80;;;;;;;;;;5011366;28;20045;-67
2022/02/28 14:12:39;;;;;;;13.25;8.07;;;;;;;;;;5011104;28;20050;-67
2022/02/28 14:15:44;;;;;;;17.58;9.98;;;;;;;;;;5011542;28;20514;-67
2022/02/28 14:19:11;;;;;;;7.82;4.72;;;;;;;;;;5011346;28;20045;-67
2022/02/28 14:22:30;;;;;;;8.82;4.80;;;;;;;;;;4999124;28;20179;-67
2022/02/28 14:26:06;;;;;;;8.13;5.13;;;;;;;;;;5011331;28;20042;-67
2022/02/28 14:29:33;;;;;;;9.45;5.55;;;;;;;;;;5011075;28;20065;-67
2022/02/28 14:33:04;;;;;;;24.83;12.30;;;;;;;;;;5011062;28;20050;-68
2022/02/28 14:36:08;;;;;;;17.75;7.60;;;;;;;;;;5010943;28;20061;-67
2022/02/28 14:39:14;;;;;;;15.20;7.60;;;;;;;;;;5010935;28;20046;-67
2022/02/28 14:42:18;;;;;;;10.63;6.38;;;;;;;;;;4998777;28;20509;-68
2022/02/28 14:45:23;;;;;;;6.15;3.53;;;;;;;;;;5010953;28;20038;-68
2022/02/28 14:48:27;;;;;;;12.63;6.80;;;;;;;;;;5010779;28;20050;-67
2022/02/28 14:51:32;;;;;;;14.20;7.07;;;;;;;;;;4998731;28;20053;-67
2022/02/28 14:54:36;;;;;;;6.00;3.30;;;;;;;;;;4997904;28;20489;-66
2022/02/28 14:57:41;;;;;;;7.53;4.70;;;;;;;;;;5010963;28;20034;-67
2022/02/28 15:00:46;;;;;;;6.82;4.13;;;;;;;;;;5010915;28;20033;-67
2022/02/28 15:03:50;;;;;;;9.13;4.38;;;;;;;;;;5010509;28;20030;-67
2022/02/28 15:06:55;;;;;;;10.10;4.88;;;;;;;;;;4997087;28;20042;-66
2022/02/28 15:09:59;;;;;;;11.07;3.97;;;;;;;;;;5009243;28;20045;-66
2022/02/28 15:13:03;;;;;;;11.85;4.15;;;;;;;;;;5009421;28;20045;-66
2022/02/28 15:16:07;;;;;;;23.00;9.70;;;;;;;;;;5009631;28;20041;-66
2022/02/28 15:19:12;;;;;;;10.82;4.57;;;;;;;;;;5009158;28;20501;-65
2022/02/28 15:22:16;;;;;;;12.07;5.38;;;;;;;;;;5009184;28;20046;-65
2022/02/28 15:25:22;;;;;;;5.72;4.50;;;;;;;;;;5009785;28;20065;-66
2022/02/28 15:28:26;;;;;;;11.35;5.55;;;;;;;;;;5008808;28;20041;-65
2022/02/28 15:31:30;;;;;;;9.73;5.30;;;;;;;;;;5008838;28;20038;-68
2022/02/28 15:34:34;;;;;;;12.63;7.95;;;;;;;;;;5009177;28;20045;-65
2022/02/28 15:37:39;;;;;;;16.20;6.50;;;;;;;;;;5009842;28;20514;-68
2022/02/28 15:40:44;;;;;;;11.73;6.43;;;;;;;;;;5009817;28;20041;-67
2022/02/28 15:43:48;;;;;;;8.95;5.38;;;;;;;;;;5013748;28;20049;-65
2022/02/28 15:46:53;;;;;;;13.00;6.22;;;;;;;;;;5013864;28;20482;-66
2022/02/28 15:49:57;;;;;;;12.43;6.65;;;;;;;;;;5013988;28;20042;-66
2022/02/28 15:53:02;;;;;;;14.25;5.80;;;;;;;;;;5013886;28;20037;-65
2022/02/28 15:56:06;;;;;;;9.88;6.28;;;;;;;;;;5013736;28;20041;-66
2022/02/28 15:59:12;;;;;;;14.35;6.47;;;;;;;;;;5013624;28;20046;-66
2022/02/28 16:02:17;;;;;;;11.88;6.05;;;;;;;;;;5013534;28;20045;-66
2022/02/28 16:05:21;;;;;;;12.93;6.10;;;;;;;;;;5012744;28;20063;-66
2022/02/28 16:08:25;;;;;;;10.32;6.47;;;;;;;;;;5012911;28;20037;-66
2022/02/28 16:11:31;;;;;;;13.77;8.35;;;;;;;;;;5013438;28;20042;-65
2022/02/28 16:14:35;;;;;;;21.40;10.60;;;;;;;;;;5013414;28;20045;-65
2022/02/28 16:17:40;;;;;;;18.58;8.35;;;;;;;;;;5013225;28;20037;-66
2022/02/28 16:20:44;;;;;;;17.40;10.48;;;;;;;;;;5013271;28;20050;-68
2022/02/28 16:23:48;;;;;;;17.20;8.32;;;;;;;;;;5013198;28;20462;-67
2022/02/28 16:26:53;;;;;;;38.35;21.55;;;;;;;;;;5012805;28;20053;-67
2022/02/28 16:29:57;;;;;;;12.18;7.15;;;;;;;;;;5013105;28;20053;-67
2022/02/28 16:33:01;;;;;;;16.83;7.32;;;;;;;;;;5012697;28;20038;-67
2022/02/28 16:36:06;;;;;;;9.82;5.80;;;;;;;;;;5012477;28;20051;-68
2022/02/28 16:39:10;;;;;;;22.58;12.55;;;;;;;;;;5012757;28;20042;-66
2022/02/28 16:42:15;;;;;;;25.67;12.57;;;;;;;;;;5012117;28;20546;-65
2022/02/28 16:45:19;;;;;;;16.67;7.03;;;;;;;;;;5012399;28;20049;-66
2022/02/28 16:48:25;;;;;;;12.23;7.10;;;;;;;;;;5000530;28;20060;-67
2022/02/28 16:51:29;;;;;;;16.25;8.60;;;;;;;;;;5012544;28;20054;-67
2022/02/28 16:54:33;;;;;;;16.05;8.55;;;;;;;;;;5012077;28;20515;-66
2022/02/28 16:57:38;;;;;;;12.75;6.50;;;;;;;;;;5012794;28;20410;-68
2022/02/28 17:00:42;;;;;;;12.43;8.02;;;;;;;;;;5012473;28;20533;-67
2022/02/28 17:03:46;;;;;;;20.15;11.85;;;;;;;;;;5012506;28;20034;-69
2022/02/28 17:06:51;;;;;;;13.38;7.85;;;;;;;;;;5012237;28;20065;-68
2022/02/28 17:09:55;;;;;;;15.77;10.98;;;;;;;;;;5011965;28;20042;-68
2022/02/28 17:12:59;;;;;;;14.57;8.50;;;;;;;;;;5012243;28;20508;-69
2022/02/28 17:16:05;;;;;;;26.23;10.10;;;;;;;;;;5012214;28;20049;-68
2022/02/28 17:19:09;;;;;;;14.50;7.88;;;;;;;;;;5012144;28;20045;-68
2022/02/28 17:22:13;;;;;;;17.90;9.75;;;;;;;;;;5012447;28;20042;-66
2022/02/28 17:25:18;;;;;;;13.65;8.65;;;;;;;;;;5012388;28;20397;-68
2022/02/28 17:28:23;;;;;;;17.70;10.63;;;;;;;;;;5011822;28;20532;-68
2022/02/28 17:31:27;;;;;;;31.08;18.38;;;;;;;;;;5000098;28;20049;-67
2022/02/28 17:34:32;;;;;;;13.13;7.85;;;;;;;;;;5011762;28;20044;-68
2022/02/28 17:37:36;;;;;;;15.27;8.32;;;;;;;;;;5012089;28;20038;-68
2022/02/28 17:40:41;;;;;;;14.77;8.13;;;;;;;;;;5012076;28;20049;-68
2022/02/28 17:43:45;;;;;;;16.13;7.63;;;;;;;;;;5011643;28;20033;-67
2022/02/28 17:46:50;;;;;;;14.23;6.90;;;;;;;;;;5011769;28;20045;-66
2022/02/28 17:49:54;;;;;;;12.73;7.85;;;;;;;;;;5012023;28;20053;-67
2022/02/28 17:52:59;;;;;;;12.07;7.20;;;;;;;;;;5011633;28;20037;-67
2022/02/28 17:56:03;;;;;;;16.77;7.50;;;;;;;;;;5011387;28;20029;-67
2022/02/28 17:59:07;;;;;;;17.13;7.90;;;;;;;;;;5011597;28;20038;-67
2022/02/28 18:02:14;;;;;;;13.95;7.97;;;;;;;;;;5011219;28;20045;-67
2022/02/28 18:05:19;;;;;;;58.38;30.23;;;;;;;;;;5011075;28;20050;-68
2022/02/28 18:08:23;;;;;;;53.50;28.45;;;;;;;;;;5010113;28;20069;-65
2022/02/28 18:11:28;;;;;;;17.98;11.02;;;;;;;;;;5008881;28;20545;-66
2022/02/28 18:14:32;;;;;;;18.60;11.27;;;;;;;;;;5010924;28;20053;-65
2022/02/28 18:17:37;;;;;;;16.20;8.20;;;;;;;;;;5011188;28;20045;-65
2022/02/28 18:20:42;;;;;;;14.10;8.52;;;;;;;;;;5011096;28;20037;-67
2022/02/28 18:23:47;;;;;;;22.23;9.02;;;;;;;;;;5010818;28;20057;-67
2022/02/28 18:26:51;;;;;;;17.98;9.45;;;;;;;;;;4999058;28;20045;-67
2022/02/28 18:29:55;;;;;;;18.85;9.10;;;;;;;;;;5010585;28;20046;-67
2022/02/28 18:32:59;;;;;;;14.48;8.35;;;;;;;;;;5011258;28;20038;-67
2022/02/28 18:36:04;;;;;;;24.25;11.40;;;;;;;;;;5010600;28;20057;-67
2022/02/28 18:39:09;;;;;;;20.50;9.82;;;;;;;;;;5010643;28;20040;-67